Time;durP1;ratioP1;P1;durP2;ratioP2;P2;SDS_P1;SDS_P2;PMS_P1;PMS_P2;Temp;Humidity;BMP_temperature;BMP_pressure;BME280_temperature;BME280_humidity;BME280_pressure;Samples;Min_cycle;Max_cycle;Signal;HPM_P1;HPM_P2
2023/09/22 00:01:25;;;;;;;1.10;0.30;;;14.70;99.90;;;;;;5091235;28;20157;-73
2023/09/22 00:03:51;;;;;;;3.20;0.52;;;14.70;99.90;;;;;;5093515;28;20088;-72
2023/09/22 00:06:18;;;;;;;5.25;0.50;;;14.70;99.90;;;;;;5091593;28;20464;-70
2023/09/22 00:08:44;;;;;;;1.73;0.60;;;14.60;99.90;;;;;;5093225;28;20233;-71
2023/09/22 00:11:10;;;;;;;1.52;0.50;;;14.60;99.90;;;;;;5074679;28;20776;-71
2023/09/22 00:13:36;;;;;;;0.80;0.30;;;14.60;99.90;;;;;;5092369;28;20038;-71
2023/09/22 00:16:02;;;;;;;2.25;0.50;;;14.60;99.90;;;;;;5093334;28;20028;-71
2023/09/22 00:18:28;;;;;;;0.77;0.45;;;14.60;99.90;;;;;;5091189;28;20057;-71
2023/09/22 00:20:54;;;;;;;2.00;0.50;;;14.50;99.90;;;;;;5090685;28;20059;-72
2023/09/22 00:23:20;;;;;;;1.10;0.57;;;14.50;99.90;;;;;;5091859;28;20032;-71
2023/09/22 00:25:46;;;;;;;1.67;0.35;;;14.50;99.90;;;;;;5075167;28;20028;-71
2023/09/22 00:28:11;;;;;;;2.55;0.50;;;14.40;99.90;;;;;;5091402;28;20109;-71
2023/09/22 00:30:37;;;;;;;4.30;0.60;;;14.50;99.90;;;;;;5089268;28;20630;-71
2023/09/22 00:33:03;;;;;;;1.73;0.40;;;14.50;99.90;;;;;;5088155;28;20044;-71
2023/09/22 00:35:29;;;;;;;1.17;0.50;;;14.40;99.90;;;;;;5090676;28;20424;-70
2023/09/22 00:37:55;;;;;;;1.23;0.55;;;14.40;99.90;;;;;;5072270;28;20032;-71
2023/09/22 00:40:20;;;;;;;1.17;0.70;;;14.40;99.90;;;;;;5088524;28;20330;-71
2023/09/22 00:42:46;;;;;;;1.30;0.68;;;14.40;99.90;;;;;;5075866;28;20111;-71
2023/09/22 00:45:14;;;;;;;0.70;0.40;;;14.40;99.90;;;;;;5090633;28;20112;-70
2023/09/22 00:47:40;;;;;;;2.58;0.75;;;14.40;99.90;;;;;;5090214;28;20044;-71
2023/09/22 00:50:11;;;;;;;1.55;0.40;;;14.30;99.90;;;;;;5091100;28;20051;-71
2023/09/22 00:52:37;;;;;;;0.93;0.43;;;14.30;99.90;;;;;;5088557;28;20551;-72
2023/09/22 00:55:04;;;;;;;1.95;0.60;;;14.30;99.90;;;;;;5090199;28;20028;-71
2023/09/22 00:57:30;;;;;;;1.90;0.57;;;14.30;99.90;;;;;;5089385;28;20085;-71
2023/09/22 00:59:56;;;;;;;3.88;0.70;;;14.20;99.90;;;;;;5089603;28;20024;-71
2023/09/22 01:02:23;;;;;;;1.30;0.47;;;14.20;99.90;;;;;;5089030;28;20032;-72
2023/09/22 01:04:49;;;;;;;2.25;0.70;;;14.20;99.90;;;;;;5089678;28;20097;-71
2023/09/22 01:07:15;;;;;;;1.27;0.50;;;14.20;99.90;;;;;;5090078;28;20067;-72
2023/09/22 01:09:41;;;;;;;3.85;0.68;;;14.10;99.90;;;;;;5089833;28;20039;-71
2023/09/22 01:12:08;;;;;;;2.42;0.75;;;14.10;99.90;;;;;;5089592;28;20024;-71
2023/09/22 01:14:33;;;;;;;3.83;1.63;;;14.10;99.90;;;;;;5089311;28;20081;-71
2023/09/22 01:16:59;;;;;;;2.05;0.75;;;14.00;99.90;;;;;;5087229;28;20119;-72
2023/09/22 01:19:25;;;;;;;1.48;0.60;;;14.10;99.90;;;;;;5088527;28;20032;-71
2023/09/22 01:21:50;;;;;;;0.90;0.50;;;14.00;99.90;;;;;;5088960;28;20513;-72
2023/09/22 01:24:16;;;;;;;3.58;0.70;;;14.10;99.90;;;;;;5090440;28;20063;-71
2023/09/22 01:26:42;;;;;;;2.67;0.70;;;14.00;99.90;;;;;;5089465;28;20620;-72
2023/09/22 01:29:08;;;;;;;1.45;0.65;;;14.00;99.90;;;;;;5089511;28;20036;-71
2023/09/22 01:31:34;;;;;;;1.15;0.70;;;14.00;99.90;;;;;;5087345;28;20036;-71
2023/09/22 01:34:03;;;;;;;2.42;0.90;;;14.00;99.90;;;;;;5088476;28;20043;-71
2023/09/22 01:36:29;;;;;;;1.42;0.80;;;13.90;99.90;;;;;;5088354;28;20461;-72
2023/09/22 01:38:57;;;;;;;5.40;0.57;;;13.90;99.90;;;;;;5089947;28;20031;-71
2023/09/22 01:41:23;;;;;;;1.40;0.70;;;13.90;99.90;;;;;;5086606;28;20185;-72
2023/09/22 01:43:49;;;;;;;1.08;0.63;;;13.90;99.90;;;;;;5075637;28;20635;-72
2023/09/22 01:46:15;;;;;;;1.65;0.73;;;13.90;99.90;;;;;;5088793;28;20575;-72
2023/09/22 01:48:40;;;;;;;1.67;0.85;;;13.80;99.90;;;;;;5089058;28;20076;-72
2023/09/22 01:51:06;;;;;;;1.52;0.60;;;13.80;99.90;;;;;;5089436;28;20062;-72
2023/09/22 01:53:31;;;;;;;3.35;1.20;;;13.80;99.90;;;;;;5085670;28;20119;-71
2023/09/22 01:55:57;;;;;;;2.33;0.50;;;13.90;99.90;;;;;;5089492;28;20028;-71
2023/09/22 01:58:23;;;;;;;1.52;0.60;;;13.80;99.90;;;;;;5089231;28;20023;-71
2023/09/22 02:00:48;;;;;;;4.78;0.47;;;13.80;99.90;;;;;;5088714;28;20719;-72
2023/09/22 02:03:14;;;;;;;1.20;0.60;;;13.80;99.90;;;;;;5088385;28;20036;-72
2023/09/22 02:05:40;;;;;;;1.50;0.63;;;13.70;99.90;;;;;;5084075;28;20536;-72
2023/09/22 02:08:07;;;;;;;1.40;0.70;;;13.70;99.90;;;;;;5088961;28;20028;-71
2023/09/22 02:10:33;;;;;;;1.10;0.70;;;13.80;99.90;;;;;;5068594;28;20029;-72
2023/09/22 02:12:59;;;;;;;1.40;0.65;;;13.80;99.90;;;;;;5069158;28;20044;-72
2023/09/22 02:15:25;;;;;;;2.05;0.80;;;13.80;99.90;;;;;;5069523;28;20074;-71
2023/09/22 02:17:50;;;;;;;3.25;0.60;;;13.70;99.90;;;;;;5088905;28;20036;-72
2023/09/22 02:20:22;;;;;;;1.38;0.70;;;13.70;99.90;;;;;;5086348;28;20115;-71
2023/09/22 02:22:53;;;;;;;3.00;0.75;;;13.90;99.90;;;;;;5087931;28;20045;-70
2023/09/22 02:25:19;;;;;;;1.60;0.77;;;13.80;99.90;;;;;;5088982;28;20035;-71
2023/09/22 02:27:50;;;;;;;1.42;0.68;;;13.80;99.90;;;;;;5087061;28;20082;-71
2023/09/22 02:30:16;;;;;;;3.05;0.77;;;13.70;99.90;;;;;;5086274;28;20145;-71
2023/09/22 02:32:48;;;;;;;1.77;0.73;;;13.80;99.90;;;;;;5088252;28;20106;-71
2023/09/22 02:35:14;;;;;;;2.90;0.95;;;13.80;99.90;;;;;;5069141;28;20419;-71
2023/09/22 02:37:40;;;;;;;1.13;0.63;;;13.80;99.90;;;;;;5086878;28;20037;-71
2023/09/22 02:40:07;;;;;;;3.05;0.98;;;13.80;99.90;;;;;;5087881;28;20507;-71
2023/09/22 02:42:33;;;;;;;2.47;0.80;;;13.70;99.90;;;;;;5087327;28;20115;-71
2023/09/22 02:44:59;;;;;;;3.20;0.80;;;13.70;99.90;;;;;;5087753;28;20123;-71
2023/09/22 02:47:28;;;;;;;3.38;0.80;;;13.80;99.90;;;;;;5088151;28;20036;-71
2023/09/22 02:49:56;;;;;;;2.72;0.80;;;13.80;99.90;;;;;;5082620;28;20083;-71
2023/09/22 02:52:22;;;;;;;2.00;0.90;;;13.70;99.90;;;;;;5086535;28;20082;-72
2023/09/22 02:54:54;;;;;;;2.25;0.98;;;13.80;99.90;;;;;;5084427;28;20031;-72
2023/09/22 02:57:20;;;;;;;1.15;0.55;;;13.90;99.90;;;;;;5087785;28;20466;-71
2023/09/22 02:59:46;;;;;;;2.92;0.88;;;13.90;99.90;;;;;;5086171;28;20622;-71
2023/09/22 03:02:13;;;;;;;3.25;0.80;;;13.90;99.90;;;;;;5083583;28;20032;-70
2023/09/22 03:04:40;;;;;;;1.30;0.70;;;13.80;99.90;;;;;;5081895;28;20063;-71
2023/09/22 03:07:05;;;;;;;1.45;0.73;;;13.90;99.90;;;;;;5073400;28;20123;-71
2023/09/22 03:09:31;;;;;;;2.22;0.85;;;13.90;99.90;;;;;;5076429;28;20547;-71
2023/09/22 03:11:57;;;;;;;3.17;1.15;;;13.90;99.90;;;;;;5083282;28;20036;-71
2023/09/22 03:14:22;;;;;;;2.35;0.73;;;13.90;99.90;;;;;;5087160;28;20038;-70
2023/09/22 03:16:49;;;;;;;1.67;0.90;;;13.90;99.90;;;;;;5084401;28;20182;-71
2023/09/22 03:19:14;;;;;;;2.42;0.90;;;13.90;99.90;;;;;;5088439;28;20036;-71
2023/09/22 03:21:40;;;;;;;3.15;1.08;;;13.90;99.90;;;;;;5081940;28;20483;-71
2023/09/22 03:24:06;;;;;;;2.85;1.00;;;14.00;99.90;;;;;;5082745;28;20028;-71
2023/09/22 03:26:32;;;;;;;1.13;0.70;;;14.00;99.90;;;;;;5085274;28;20031;-71
2023/09/22 03:28:57;;;;;;;2.03;0.93;;;13.90;99.90;;;;;;5085522;28;20036;-71
2023/09/22 03:31:23;;;;;;;1.40;0.68;;;13.90;99.90;;;;;;5088389;28;20030;-71
2023/09/22 03:33:49;;;;;;;1.73;0.80;;;13.90;99.90;;;;;;5085364;28;20089;-71
2023/09/22 03:36:15;;;;;;;3.53;0.90;;;13.80;99.90;;;;;;5092297;28;20036;-71
2023/09/22 03:38:42;;;;;;;2.05;0.80;;;13.70;99.90;;;;;;5093368;28;20419;-71
2023/09/22 03:41:08;;;;;;;1.60;0.70;;;13.70;99.90;;;;;;5085602;28;20473;-71
2023/09/22 03:43:35;;;;;;;3.40;0.90;;;13.80;99.90;;;;;;5086220;28;20032;-72
2023/09/22 03:46:00;;;;;;;4.88;0.90;;;13.80;99.90;;;;;;5085011;28;20105;-71
2023/09/22 03:48:26;;;;;;;2.15;1.10;;;13.80;99.90;;;;;;5087012;28;20049;-71
2023/09/22 03:50:55;;;;;;;3.10;1.48;;;13.90;99.90;;;;;;5085010;28;20031;-71
2023/09/22 03:53:22;;;;;;;1.90;1.08;;;13.90;99.90;;;;;;5087040;28;20036;-71
2023/09/22 03:55:48;;;;;;;1.83;0.80;;;13.90;99.90;;;;;;5084262;28;20028;-70
2023/09/22 03:58:16;;;;;;;1.45;0.63;;;13.90;99.90;;;;;;5077469;28;20031;-71
2023/09/22 04:00:43;;;;;;;3.95;1.10;;;13.90;99.90;;;;;;5067268;28;20032;-72
2023/09/22 04:03:13;;;;;;;4.35;1.05;;;13.80;99.90;;;;;;5082368;28;20032;-70
2023/09/22 04:05:39;;;;;;;2.58;1.15;;;13.80;99.90;;;;;;5079928;28;20032;-71
2023/09/22 04:08:05;;;;;;;1.92;1.10;;;13.80;99.90;;;;;;5086631;28;20067;-71
2023/09/22 04:10:34;;;;;;;1.40;0.70;;;13.80;99.90;;;;;;5082354;28;20443;-71
2023/09/22 04:12:59;;;;;;;2.55;1.00;;;13.80;99.90;;;;;;5091009;28;20075;-71
2023/09/22 04:15:26;;;;;;;3.25;0.73;;;13.70;99.90;;;;;;5089765;28;20074;-72
2023/09/22 04:17:52;;;;;;;5.65;1.10;;;13.70;99.90;;;;;;5089758;28;20032;-71
2023/09/22 04:20:28;;;;;;;2.60;0.82;;;13.60;99.90;;;;;;5085099;28;20047;-70
2023/09/22 04:22:58;;;;;;;2.30;0.80;;;13.60;99.90;;;;;;5088291;28;20043;-70
2023/09/22 04:25:33;;;;;;;2.13;0.90;;;13.60;99.90;;;;;;5082622;28;20033;-70
2023/09/22 04:28:11;;;;;;;4.22;1.20;;;13.50;99.90;;;;;;5085734;28;20132;-71
2023/09/22 04:30:43;;;;;;;2.05;0.93;;;13.50;99.90;;;;;;5083730;28;20388;-71
2023/09/22 04:33:10;;;;;;;7.85;0.80;;;13.60;99.90;;;;;;5086580;28;20044;-71
2023/09/22 04:35:37;;;;;;;2.95;0.75;;;13.60;99.90;;;;;;5085376;28;20028;-71
2023/09/22 04:38:06;;;;;;;2.25;0.95;;;13.60;99.90;;;;;;5088035;28;20024;-72
2023/09/22 04:40:36;;;;;;;2.25;0.90;;;13.60;99.90;;;;;;5075496;28;20037;-72
2023/09/22 04:43:03;;;;;;;2.17;1.05;;;13.70;99.90;;;;;;5061833;28;20550;-70
2023/09/22 04:45:29;;;;;;;3.05;1.02;;;13.70;99.90;;;;;;5078429;28;20097;-71
2023/09/22 04:47:55;;;;;;;4.18;1.40;;;13.70;99.90;;;;;;5080519;28;20052;-73
2023/09/22 04:50:21;;;;;;;4.50;1.45;;;13.70;99.90;;;;;;5074994;28;21539;-72
2023/09/22 04:52:49;;;;;;;2.22;1.05;;;13.60;99.90;;;;;;5079174;28;20039;-73
2023/09/22 04:55:19;;;;;;;5.47;1.42;;;13.60;99.90;;;;;;5077325;28;20032;-72
2023/09/22 04:57:45;;;;;;;3.15;1.33;;;13.60;99.90;;;;;;5082284;28;20043;-72
2023/09/22 05:00:19;;;;;;;3.45;1.02;;;13.60;99.90;;;;;;5085312;28;20036;-71
2023/09/22 05:02:45;;;;;;;3.47;1.05;;;13.40;99.90;;;;;;5064715;28;20032;-73
2023/09/22 05:05:11;;;;;;;1.52;0.90;;;13.50;99.90;;;;;;5078074;28;20032;-73
2023/09/22 05:07:37;;;;;;;4.40;0.73;;;13.40;99.90;;;;;;5081821;28;20032;-72
2023/09/22 05:10:04;;;;;;;3.45;1.00;;;13.30;99.90;;;;;;5084218;28;20123;-71
2023/09/22 05:12:30;;;;;;;3.35;1.25;;;13.30;99.90;;;;;;5083619;28;20078;-71
2023/09/22 05:14:58;;;;;;;2.40;0.85;;;13.20;99.90;;;;;;5082588;28;20491;-72
2023/09/22 05:17:24;;;;;;;2.33;1.02;;;13.30;99.90;;;;;;5084336;28;20032;-72
2023/09/22 05:19:50;;;;;;;1.88;0.95;;;13.30;99.90;;;;;;5083324;28;20058;-72
2023/09/22 05:22:17;;;;;;;4.38;0.95;;;13.40;99.90;;;;;;5083084;28;20043;-72
2023/09/22 05:24:44;;;;;;;2.00;0.93;;;13.50;99.90;;;;;;5067175;28;20073;-76
2023/09/22 05:27:10;;;;;;;3.38;1.00;;;13.60;99.90;;;;;;5087696;28;20032;-76
2023/09/22 05:29:36;;;;;;;5.95;1.10;;;13.60;99.90;;;;;;5088522;28;20415;-73
2023/09/22 05:32:01;;;;;;;2.30;0.95;;;13.60;99.90;;;;;;5083205;28;20090;-74
2023/09/22 05:34:27;;;;;;;5.72;1.00;;;13.60;99.90;;;;;;5083603;28;20032;-75
2023/09/22 05:36:53;;;;;;;2.20;0.90;;;13.70;99.90;;;;;;5081407;28;20107;-75
2023/09/22 05:39:19;;;;;;;2.72;1.30;;;13.70;99.90;;;;;;5086660;28;20107;-73
2023/09/22 05:41:48;;;;;;;2.00;1.02;;;13.70;99.90;;;;;;5082338;28;20036;-75
2023/09/22 05:44:16;;;;;;;2.58;1.00;;;13.70;99.90;;;;;;5085102;28;20415;-72
2023/09/22 05:46:42;;;;;;;5.53;1.20;;;13.70;99.90;;;;;;5087702;28;20511;-73
2023/09/22 05:49:08;;;;;;;3.28;1.50;;;13.70;99.90;;;;;;5084944;28;20056;-74
2023/09/22 05:51:34;;;;;;;6.50;1.00;;;13.70;99.90;;;;;;5079499;28;20039;-74
2023/09/22 05:54:00;;;;;;;3.05;1.00;;;13.70;99.90;;;;;;5085907;28;20043;-76
2023/09/22 05:56:25;;;;;;;2.83;1.10;;;13.70;99.90;;;;;;5084254;28;20035;-74
2023/09/22 05:58:51;;;;;;;3.28;1.27;;;13.70;99.90;;;;;;5088904;28;20416;-75
2023/09/22 06:01:17;;;;;;;3.47;1.10;;;13.70;99.90;;;;;;5086266;28;20032;-74
2023/09/22 06:03:47;;;;;;;3.25;1.20;;;13.70;99.90;;;;;;5086985;28;20036;-72
2023/09/22 06:06:15;;;;;;;3.55;1.35;;;13.60;99.90;;;;;;5083529;28;20028;-74
2023/09/22 06:08:45;;;;;;;9.00;1.63;;;13.60;99.90;;;;;;5084151;28;20035;-74
2023/09/22 06:11:11;;;;;;;3.63;1.35;;;13.60;99.90;;;;;;5065214;28;20050;-75
2023/09/22 06:13:38;;;;;;;2.53;1.17;;;13.70;99.90;;;;;;5086211;28;20051;-77
2023/09/22 06:16:04;;;;;;;3.03;1.35;;;13.70;99.90;;;;;;5067625;28;20039;-74
2023/09/22 06:18:31;;;;;;;2.92;1.65;;;13.70;99.90;;;;;;5082652;28;20130;-73
2023/09/22 06:20:58;;;;;;;6.05;1.20;;;13.80;99.90;;;;;;5085536;28;20032;-72
2023/09/22 06:23:24;;;;;;;2.75;1.17;;;13.70;99.90;;;;;;5087672;28;20472;-71
2023/09/22 06:25:59;;;;;;;3.15;1.08;;;13.80;99.90;;;;;;5083886;28;20098;-74
2023/09/22 06:28:25;;;;;;;4.55;1.30;;;13.80;99.90;;;;;;5078510;28;20036;-73
2023/09/22 06:30:52;;;;;;;2.60;1.10;;;13.70;99.90;;;;;;5078132;28;20035;-71
2023/09/22 06:33:18;;;;;;;3.42;1.27;;;13.70;99.90;;;;;;5078387;28;20043;-73
2023/09/22 06:35:45;;;;;;;2.92;1.20;;;13.80;99.90;;;;;;5062432;28;20055;-71
2023/09/22 06:38:11;;;;;;;2.65;1.20;;;13.90;99.90;;;;;;5079509;28;20392;-70
2023/09/22 06:40:37;;;;;;;3.30;1.20;;;13.90;99.90;;;;;;5078581;28;20032;-72
2023/09/22 06:43:04;;;;;;;3.55;1.30;;;13.80;99.90;;;;;;5085404;28;20032;-71
2023/09/22 06:45:37;;;;;;;2.53;1.40;;;13.80;99.90;;;;;;5081072;28;20116;-70
2023/09/22 06:48:05;;;;;;;4.35;1.17;;;13.80;99.90;;;;;;5082451;28;20051;-73
2023/09/22 06:50:34;;;;;;;2.85;1.05;;;13.80;99.90;;;;;;5082399;28;20032;-73
2023/09/22 06:52:59;;;;;;;3.70;1.02;;;13.80;99.90;;;;;;5085280;28;20741;-74
2023/09/22 06:55:25;;;;;;;3.38;0.93;;;13.80;99.90;;;;;;5083958;28;20041;-73
2023/09/22 06:57:52;;;;;;;2.85;1.13;;;13.80;99.90;;;;;;5087071;28;20028;-73
2023/09/22 07:00:18;;;;;;;4.40;1.27;;;13.90;99.90;;;;;;5082625;28;20116;-70
2023/09/22 07:02:47;;;;;;;6.13;1.45;;;13.90;99.90;;;;;;5081496;28;20179;-74
2023/09/22 07:05:17;;;;;;;4.10;1.45;;;13.90;99.90;;;;;;5084590;28;20047;-74
2023/09/22 07:07:42;;;;;;;4.28;1.30;;;13.90;99.90;;;;;;5087037;28;20059;-74
2023/09/22 07:10:13;;;;;;;3.25;1.50;;;14.00;99.90;;;;;;5084360;28;20094;-72
2023/09/22 07:12:39;;;;;;;1.83;1.13;;;14.00;99.90;;;;;;5085458;28;20039;-69
2023/09/22 07:15:06;;;;;;;3.53;1.60;;;14.00;99.90;;;;;;5082279;28;20878;-64
2023/09/22 07:17:33;;;;;;;3.70;1.45;;;14.00;99.90;;;;;;5086079;28;20461;-67
2023/09/22 07:20:03;;;;;;;5.40;1.63;;;14.00;99.90;;;;;;5084966;28;20148;-65
2023/09/22 07:22:32;;;;;;;4.30;1.70;;;14.00;99.90;;;;;;5086321;28;20034;-66
2023/09/22 07:24:58;;;;;;;7.25;3.10;;;14.00;99.90;;;;;;5069695;28;20610;-66
2023/09/22 07:27:24;;;;;;;5.72;3.55;;;14.00;99.90;;;;;;5084797;28;20222;-66
2023/09/22 07:29:50;;;;;;;7.63;3.50;;;14.00;99.90;;;;;;5081617;28;20040;-66
2023/09/22 07:32:17;;;;;;;6.05;3.63;;;14.00;99.90;;;;;;5085443;28;20157;-64
2023/09/22 07:34:42;;;;;;;6.85;2.10;;;14.10;99.90;;;;;;5084654;28;20062;-67
2023/09/22 07:37:11;;;;;;;3.35;2.10;;;14.00;99.90;;;;;;5085952;28;20104;-67
2023/09/22 07:39:37;;;;;;;4.40;1.60;;;14.00;99.90;;;;;;5086890;28;20032;-67
2023/09/22 07:42:04;;;;;;;6.13;1.95;;;14.00;99.90;;;;;;5065554;28;20204;-67
2023/09/22 07:44:30;;;;;;;6.45;2.13;;;14.00;99.90;;;;;;5089934;28;20135;-67
2023/09/22 07:46:58;;;;;;;2.97;1.55;;;14.00;99.90;;;;;;5078493;28;20026;-65
2023/09/22 07:49:25;;;;;;;4.18;1.40;;;13.90;99.90;;;;;;5090559;28;20142;-64
2023/09/22 07:51:51;;;;;;;2.72;1.40;;;13.90;99.90;;;;;;5087947;28;20039;-64
2023/09/22 07:54:18;;;;;;;3.10;1.17;;;14.00;99.90;;;;;;5091863;28;20032;-65
2023/09/22 07:56:46;;;;;;;2.97;1.25;;;14.10;99.90;;;;;;5091535;28;20039;-65
2023/09/22 07:59:13;;;;;;;3.45;1.20;;;14.20;99.90;;;;;;5088255;28;20392;-66
2023/09/22 08:01:42;;;;;;;2.83;1.20;;;14.30;99.90;;;;;;5087425;28;20090;-66
2023/09/22 08:04:12;;;;;;;1.73;1.10;;;14.40;99.90;;;;;;5090360;28;20032;-64
2023/09/22 08:06:37;;;;;;;3.92;1.35;;;14.60;99.90;;;;;;5090973;28;20039;-65
2023/09/22 08:09:04;;;;;;;2.15;1.02;;;14.60;99.90;;;;;;5089106;28;20274;-65
2023/09/22 08:11:30;;;;;;;6.65;1.17;;;14.60;99.90;;;;;;5087891;28;20024;-64
2023/09/22 08:13:58;;;;;;;3.67;0.88;;;14.70;99.90;;;;;;5086619;28;20044;-65
2023/09/22 08:16:24;;;;;;;2.72;1.65;;;14.70;99.90;;;;;;5090259;28;20667;-65
2023/09/22 08:18:50;;;;;;;3.08;1.33;;;14.70;99.90;;;;;;5086417;28;20044;-66
2023/09/22 08:21:16;;;;;;;1.45;0.93;;;14.80;99.90;;;;;;5090537;28;20105;-67
2023/09/22 08:23:42;;;;;;;2.58;0.80;;;14.80;99.90;;;;;;5088653;28;20028;-67
2023/09/22 08:26:17;;;;;;;3.70;1.27;;;14.80;99.90;;;;;;5086832;28;20039;-65
2023/09/22 08:28:47;;;;;;;1.30;0.80;;;14.80;99.90;;;;;;5086774;28;20040;-65
2023/09/22 08:31:13;;;;;;;0.95;0.65;;;14.70;99.90;;;;;;5079963;28;20066;-65
2023/09/22 08:33:40;;;;;;;2.42;0.70;;;14.70;99.90;;;;;;5087890;28;20083;-65
2023/09/22 08:36:06;;;;;;;2.38;0.80;;;14.70;99.90;;;;;;5089082;28;20133;-65
2023/09/22 08:38:33;;;;;;;16.00;1.00;;;14.60;99.90;;;;;;5086469;28;20687;-65
2023/09/22 08:41:05;;;;;;;1.80;0.80;;;14.60;99.90;;;;;;5088181;28;20028;-64
2023/09/22 08:43:32;;;;;;;1.85;1.00;;;14.50;99.90;;;;;;5087518;28;20036;-65
2023/09/22 08:46:01;;;;;;;1.63;0.82;;;14.60;99.90;;;;;;5087361;28;20097;-66
2023/09/22 08:48:28;;;;;;;2.83;1.27;;;14.60;99.90;;;;;;5094938;28;20048;-67
2023/09/22 08:50:54;;;;;;;2.63;0.98;;;14.70;99.90;;;;;;5096840;28;20077;-65
2023/09/22 08:53:20;;;;;;;2.28;0.88;;;14.80;99.90;;;;;;5092508;28;20047;-64
2023/09/22 08:55:50;;;;;;;1.88;1.02;;;14.80;99.90;;;;;;5091105;28;20040;-66
2023/09/22 08:58:18;;;;;;;1.27;0.60;;;14.90;99.90;;;;;;5088971;28;20478;-65
2023/09/22 09:00:51;;;;;;;2.08;0.93;;;15.00;99.90;;;;;;5086642;28;20052;-66
2023/09/22 09:03:21;;;;;;;1.25;0.80;;;14.90;99.90;;;;;;5074500;28;20039;-64
2023/09/22 09:05:47;;;;;;;2.57;0.93;;;15.00;99.90;;;;;;5089625;28;20027;-65
2023/09/22 09:08:14;;;;;;;3.58;0.80;;;14.90;99.90;;;;;;5088213;28;20418;-65
2023/09/22 09:10:50;;;;;;;3.33;1.27;;;14.80;99.90;;;;;;5089187;28;20032;-64
2023/09/22 09:13:18;;;;;;;2.55;1.15;;;14.70;99.90;;;;;;5087872;28;20039;-66
2023/09/22 09:15:48;;;;;;;2.25;1.23;;;14.70;99.90;;;;;;5088081;28;20031;-65
2023/09/22 09:18:16;;;;;;;4.97;1.90;;;14.60;99.90;;;;;;5089221;28;20059;-64
2023/09/22 09:20:43;;;;;;;3.60;1.88;;;14.50;99.90;;;;;;5089207;28;20060;-64
2023/09/22 09:23:16;;;;;;;4.20;2.00;;;14.50;99.90;;;;;;5087700;28;20028;-63
2023/09/22 09:25:43;;;;;;;2.97;1.80;;;14.40;99.90;;;;;;5086311;28;20037;-64
2023/09/22 09:28:10;;;;;;;3.92;2.35;;;14.50;99.90;;;;;;5087740;28;20034;-63
2023/09/22 09:30:37;;;;;;;3.22;2.25;;;14.50;99.90;;;;;;5089623;28;20024;-63
2023/09/22 09:33:09;;;;;;;5.97;2.92;;;14.50;99.90;;;;;;5086888;28;20044;-63
2023/09/22 09:35:37;;;;;;;4.53;2.30;;;14.50;99.90;;;;;;5086765;28;20119;-63
2023/09/22 09:38:03;;;;;;;6.70;2.63;;;14.50;99.90;;;;;;5086682;28;20025;-64
2023/09/22 09:40:29;;;;;;;5.43;2.30;;;14.50;99.90;;;;;;5085961;28;20396;-63
2023/09/22 09:42:57;;;;;;;3.70;2.17;;;14.50;99.90;;;;;;5085346;28;20570;-64
2023/09/22 09:45:23;;;;;;;9.63;2.00;;;14.50;99.90;;;;;;5083702;28;20372;-64
2023/09/22 09:47:54;;;;;;;4.80;2.33;;;14.60;99.90;;;;;;5068047;28;20091;-67
2023/09/22 09:50:20;;;;;;;;;;;14.70;99.90;;;;;;5070028;28;20036;-66
2023/09/22 09:52:56;;;;;;;3.75;2.35;;;14.80;99.90;;;;;;5087014;28;19924;-66
2023/09/22 09:55:26;;;;;;;6.38;2.97;;;14.90;99.90;;;;;;5083063;28;20035;-67
2023/09/22 09:57:53;;;;;;;7.57;3.17;;;15.00;99.90;;;;;;5085111;28;20028;-65
2023/09/22 10:00:19;;;;;;;5.90;3.30;;;15.10;99.90;;;;;;5088687;28;20085;-64
2023/09/22 10:02:49;;;;;;;6.40;3.80;;;15.10;99.90;;;;;;5082918;28;20351;-66
2023/09/22 10:05:21;;;;;;;5.40;3.22;;;15.10;99.90;;;;;;5087621;28;20158;-64
2023/09/22 10:07:48;;;;;;;5.80;3.20;;;15.10;99.90;;;;;;5086103;28;20031;-66
2023/09/22 10:10:17;;;;;;;5.72;3.25;;;15.10;99.90;;;;;;5086043;28;20028;-66
2023/09/22 10:12:43;;;;;;;4.63;3.00;;;15.10;99.90;;;;;;5088216;28;20028;-66
2023/09/22 10:15:11;;;;;;;4.88;2.80;;;15.10;99.90;;;;;;5087113;28;20637;-64
2023/09/22 10:17:36;;;;;;;4.40;2.78;;;15.10;99.90;;;;;;5078399;28;20365;-66
2023/09/22 10:20:10;;;;;;;8.70;3.22;;;15.10;99.90;;;;;;5077053;28;20038;-65
2023/09/22 10:22:37;;;;;;;5.32;2.83;;;15.10;99.90;;;;;;5087365;28;20028;-65
2023/09/22 10:25:15;;;;;;;6.20;3.17;;;15.10;99.90;;;;;;5083525;28;20028;-66
2023/09/22 10:27:57;;;;;;;4.45;2.60;;;15.20;99.90;;;;;;5082669;28;20499;-63
2023/09/22 10:30:41;;;;;;;4.18;2.35;;;15.10;99.90;;;;;;5076129;28;20044;-63
2023/09/22 10:33:16;;;;;;;2.95;1.88;;;15.20;99.90;;;;;;5083946;28;20035;-64
2023/09/22 10:35:42;;;;;;;3.97;2.38;;;15.10;99.90;;;;;;5077893;28;20028;-65
2023/09/22 10:38:11;;;;;;;3.67;2.10;;;15.20;99.90;;;;;;5085758;28;20040;-67
2023/09/22 10:40:40;;;;;;;3.58;2.10;;;15.20;99.90;;;;;;5071461;28;20071;-64
2023/09/22 10:43:06;;;;;;;7.82;2.60;;;15.20;99.90;;;;;;5075460;28;20040;-65
2023/09/22 10:45:31;;;;;;;5.53;2.35;;;15.30;99.90;;;;;;5080073;28;20954;-64
2023/09/22 10:47:59;;;;;;;4.78;1.90;;;15.30;99.90;;;;;;5079830;28;20065;-64
2023/09/22 10:50:32;;;;;;;3.28;2.03;;;15.40;99.90;;;;;;5080237;28;20050;-65
2023/09/22 10:53:02;;;;;;;3.97;2.10;;;15.50;99.90;;;;;;5082272;28;20028;-65
2023/09/22 10:55:39;;;;;;;7.47;2.00;;;15.50;99.90;;;;;;5078442;28;20121;-64
2023/09/22 10:58:12;;;;;;;5.07;1.90;;;15.50;99.90;;;;;;5085919;28;20040;-64
2023/09/22 11:00:41;;;;;;;4.03;2.00;;;15.50;99.90;;;;;;5081282;28;20020;-67
2023/09/22 11:03:08;;;;;;;4.10;2.13;;;15.50;99.90;;;;;;5081692;28;20559;-64
2023/09/22 11:05:35;;;;;;;2.85;1.67;;;15.50;99.90;;;;;;5084927;28;20587;-64
2023/09/22 11:08:01;;;;;;;4.70;2.10;;;15.50;99.90;;;;;;5086484;28;20056;-64
2023/09/22 11:10:27;;;;;;;2.60;1.45;;;15.50;99.90;;;;;;5079684;28;20032;-65
2023/09/22 11:12:56;;;;;;;3.78;1.88;;;15.50;99.90;;;;;;5082160;28;20377;-66
2023/09/22 11:15:22;;;;;;;2.42;1.55;;;15.50;99.90;;;;;;5080037;28;20081;-66
2023/09/22 11:17:48;;;;;;;3.42;1.38;;;15.50;99.90;;;;;;5081301;28;20029;-63
2023/09/22 11:20:27;;;;;;;2.05;1.10;;;15.60;99.90;;;;;;5080485;28;20080;-64
2023/09/22 11:22:54;;;;;;;2.80;1.20;;;15.60;99.90;;;;;;5085043;28;20031;-65
2023/09/22 11:25:27;;;;;;;1.85;1.10;;;15.60;99.90;;;;;;5082950;28;20031;-64
2023/09/22 11:27:53;;;;;;;2.55;1.13;;;15.60;99.90;;;;;;5087641;28;20078;-67
2023/09/22 11:30:26;;;;;;;4.30;1.40;;;15.60;99.90;;;;;;5079890;28;20111;-64
2023/09/22 11:32:52;;;;;;;3.08;1.55;;;15.70;99.90;;;;;;5085589;28;20077;-64
2023/09/22 11:35:40;;;;;;;2.95;1.38;;;15.90;99.90;;;;;;5068852;28;20035;-64
2023/09/22 11:38:29;;;;;;;3.05;1.00;;;16.10;99.90;;;;;;5086151;28;20516;-64
2023/09/22 11:41:09;;;;;;;2.45;1.00;;;16.20;99.90;;;;;;5072305;28;20826;-66
2023/09/22 11:43:46;;;;;;;3.33;1.20;;;16.40;99.90;;;;;;5086619;28;20055;-64
2023/09/22 11:46:23;;;;;;;6.72;0.95;;;16.50;99.90;;;;;;5074744;28;20047;-64
2023/09/22 11:49:05;;;;;;;2.60;1.10;;;16.50;99.90;;;;;;5085464;28;20452;-64
2023/09/22 11:51:43;;;;;;;1.40;0.70;;;16.40;99.90;;;;;;5085132;28;20658;-65
2023/09/22 11:54:10;;;;;;;5.90;1.20;;;16.40;99.90;;;;;;5081424;28;20097;-65
2023/09/22 11:56:36;;;;;;;2.15;0.90;;;16.50;99.90;;;;;;5075647;28;20043;-65
2023/09/22 11:59:13;;;;;;;1.77;1.05;;;16.60;99.90;;;;;;5084188;28;20028;-64
2023/09/22 12:01:40;;;;;;;1.23;0.90;;;16.60;99.90;;;;;;5067318;28;20410;-64
2023/09/22 12:04:06;;;;;;;1.45;1.00;;;16.40;99.90;;;;;;5058672;28;20067;-65
2023/09/22 12:06:32;;;;;;;3.08;1.67;;;16.40;99.90;;;;;;5080399;28;20147;-64
2023/09/22 12:08:59;;;;;;;3.15;1.50;;;16.40;99.90;;;;;;5085628;28;20031;-65
2023/09/22 12:11:25;;;;;;;3.47;1.40;;;16.40;99.90;;;;;;5068541;28;20036;-63
2023/09/22 12:13:51;;;;;;;2.72;1.30;;;16.30;99.90;;;;;;5087775;28;20468;-64
2023/09/22 12:16:17;;;;;;;1.65;1.02;;;16.30;99.90;;;;;;5074580;28;20032;-65
2023/09/22 12:18:42;;;;;;;1.80;1.30;;;16.30;99.90;;;;;;5086788;28;20086;-64
2023/09/22 12:21:08;;;;;;;2.05;0.90;;;16.20;99.90;;;;;;5075362;28;20477;-64
2023/09/22 12:23:34;;;;;;;1.60;0.95;;;16.10;99.90;;;;;;5086126;28;20028;-65
2023/09/22 12:26:01;;;;;;;1.30;0.90;;;16.00;99.90;;;;;;5076296;28;20029;-67
2023/09/22 12:28:27;;;;;;;2.28;0.90;;;16.00;99.90;;;;;;5087297;28;20050;-64
2023/09/22 12:30:53;;;;;;;2.25;0.90;;;16.10;99.90;;;;;;5088109;28;20020;-64
2023/09/22 12:33:21;;;;;;;2.20;1.08;;;16.00;99.90;;;;;;5090283;28;20623;-64
2023/09/22 12:35:48;;;;;;;1.52;0.90;;;16.00;99.90;;;;;;5083862;28;20060;-64
2023/09/22 12:38:14;;;;;;;1.48;0.70;;;15.90;99.90;;;;;;5074497;28;20027;-65
2023/09/22 12:40:40;;;;;;;1.67;0.85;;;15.90;99.90;;;;;;5071128;28;20028;-64
2023/09/22 12:43:06;;;;;;;3.20;0.80;;;15.80;99.90;;;;;;5070653;28;20065;-65
2023/09/22 12:45:31;;;;;;;1.02;0.35;;;15.90;99.90;;;;;;5088441;28;20028;-65
2023/09/22 12:47:57;;;;;;;1.55;0.47;;;15.90;99.90;;;;;;5090022;28;20431;-65
2023/09/22 12:50:23;;;;;;;1.40;0.70;;;15.80;99.90;;;;;;5080482;28;20063;-65